createdAt,value
2023-02-16T00:01:30.901Z,64.94
2023-02-16T00:03:59.338Z,65.16
2023-02-16T00:06:28.239Z,65.05
2023-02-16T00:08:57.945Z,64.79
2023-02-16T00:11:47.323Z,65.03
2023-02-16T00:14:15.768Z,65.25
2023-02-16T00:16:45.255Z,65.17
2023-02-16T00:19:22.311Z,65.11
2023-02-16T00:21:51.530Z,65.20
2023-02-16T00:24:19.608Z,65.03
2023-02-16T00:26:48.328Z,65.07
2023-02-16T00:29:21.258Z,65.06
2023-02-16T00:31:51.374Z,65.25
2023-02-16T00:34:33.032Z,65.01
2023-02-16T00:37:02.664Z,65.08
2023-02-16T00:39:31.671Z,64.82
2023-02-16T00:42:02.333Z,64.78
2023-02-16T00:44:34.914Z,64.59
2023-02-16T00:47:13.419Z,64.79
2023-02-16T00:49:41.509Z,64.48
2023-02-16T00:52:29.473Z,64.38
2023-02-16T00:54:58.017Z,64.35
2023-02-16T00:57:28.957Z,64.39
2023-02-16T01:00:04.494Z,64.35
2023-02-16T01:02:34.275Z,64.39
2023-02-16T01:05:02.503Z,64.38
2023-02-16T01:07:47.831Z,64.50
2023-02-16T01:10:33.085Z,64.47
2023-02-16T01:13:02.591Z,64.48
2023-02-16T01:15:30.667Z,64.87
2023-02-16T01:18:00.112Z,64.86
2023-02-16T01:20:29.170Z,64.83
2023-02-16T01:22:57.625Z,64.97
2023-02-16T01:25:25.972Z,65.00
2023-02-16T01:27:54.399Z,65.19
2023-02-16T01:30:25.162Z,65.08
2023-02-16T01:32:53.868Z,65.15
2023-02-16T01:35:26.018Z,65.11
2023-02-16T01:37:54.080Z,65.34
2023-02-16T01:40:32.138Z,65.50
2023-02-16T01:43:05.405Z,65.50
2023-02-16T01:45:36.766Z,65.77
2023-02-16T01:48:07.113Z,66.06
2023-02-16T01:50:49.279Z,66.04
2023-02-16T01:53:22.552Z,66.38
2023-02-16T01:55:56.554Z,66.01
2023-02-16T01:58:34.900Z,65.79
2023-02-16T02:01:41.149Z,65.71
2023-02-16T02:04:35.568Z,65.35
2023-02-16T02:07:05.299Z,65.39
2023-02-16T02:09:42.160Z,65.42
2023-02-16T02:12:19.807Z,65.23
2023-02-16T02:14:49.241Z,65.17
2023-02-16T02:17:21.490Z,65.40
2023-02-16T02:19:58.279Z,65.41
2023-02-16T02:23:18.484Z,65.89
2023-02-16T02:26:28.600Z,65.62
2023-02-16T02:29:06.894Z,66.30
2023-02-16T02:31:48.452Z,66.41
2023-02-16T02:34:28.630Z,66.30
2023-02-16T02:37:09.192Z,66.49
2023-02-16T02:39:47.634Z,66.70
2023-02-16T02:42:25.101Z,67.30
2023-02-16T02:44:58.719Z,67.88
2023-02-16T02:47:39.280Z,68.14
2023-02-16T02:51:02.957Z,68.86
2023-02-16T02:53:31.746Z,69.27
2023-02-16T02:56:19.442Z,70.45
2023-02-16T02:59:08.723Z,71.84
2023-02-16T03:01:42.385Z,71.91
2023-02-16T03:04:14.876Z,71.72
2023-02-16T03:06:49.055Z,71.24
2023-02-16T03:09:18.210Z,70.99
2023-02-16T03:12:05.467Z,71.22
2023-02-16T03:14:36.275Z,71.37
2023-02-16T03:17:28.346Z,71.38
2023-02-16T03:20:15.260Z,72.06
2023-02-16T03:23:01.696Z,72.61
2023-02-16T03:25:49.698Z,73.40
2023-02-16T03:28:37.663Z,74.20
2023-02-16T03:31:08.075Z,74.74
2023-02-16T03:33:38.086Z,75.64
2023-02-16T03:36:08.338Z,75.89
2023-02-16T03:38:37.858Z,76.08
2023-02-16T03:41:06.372Z,76.96
2023-02-16T03:43:34.612Z,76.79
2023-02-16T03:46:02.941Z,76.63
2023-02-16T03:48:31.057Z,76.66
2023-02-16T03:51:00.596Z,77.04
2023-02-16T03:53:28.911Z,77.12
2023-02-16T03:55:57.032Z,77.15
2023-02-16T03:58:26.105Z,77.24
2023-02-16T04:00:54.750Z,77.47
2023-02-16T04:03:23.001Z,77.63
2023-02-16T04:05:51.199Z,78.12
2023-02-16T04:08:20.655Z,78.06
2023-02-16T04:10:48.782Z,78.22
2023-02-16T04:13:15.851Z,78.66
2023-02-16T04:15:44.154Z,78.24
2023-02-16T04:18:12.348Z,78.35
2023-02-16T04:20:40.533Z,77.90
2023-02-16T04:23:08.779Z,77.47
2023-02-16T04:25:38.265Z,77.10
2023-02-16T04:28:06.342Z,76.40
2023-02-16T04:30:34.806Z,76.29
2023-02-16T04:33:03.310Z,76.25
2023-02-16T04:35:31.389Z,76.25
2023-02-16T04:37:59.657Z,76.46
2023-02-16T04:40:27.823Z,76.23
2023-02-16T04:42:57.448Z,76.15
2023-02-16T04:45:25.562Z,76.50
2023-02-16T04:47:53.767Z,76.28
2023-02-16T04:50:22.007Z,74.20
2023-02-16T04:52:50.106Z,73.42
2023-02-16T04:55:18.424Z,72.96
2023-02-16T04:57:46.713Z,72.89
2023-02-16T05:00:16.849Z,72.05
2023-02-16T05:02:44.948Z,71.47
2023-02-16T05:05:13.148Z,70.98
2023-02-16T05:07:41.267Z,70.59
2023-02-16T05:10:10.207Z,70.71
2023-02-16T05:12:55.780Z,70.55
2023-02-16T05:15:25.840Z,70.35
2023-02-16T05:17:54.004Z,70.08
2023-02-16T05:20:42.909Z,69.67
2023-02-16T05:23:12.336Z,69.48
2023-02-16T05:25:40.600Z,68.78
2023-02-16T05:28:08.721Z,67.88
2023-02-16T05:30:38.306Z,67.50
2023-02-16T05:33:06.414Z,66.26
2023-02-16T05:35:35.738Z,64.94
2023-02-16T05:38:03.851Z,63.55
2023-02-16T05:40:31.920Z,61.01
2023-02-16T05:43:00.063Z,58.34
2023-02-16T05:45:28.450Z,56.18
2023-02-16T05:47:58.046Z,54.67
2023-02-16T05:50:26.151Z,53.98
2023-02-16T05:52:54.282Z,54.39
2023-02-16T05:55:22.499Z,53.99
2023-02-16T05:57:50.719Z,52.80
2023-02-16T06:00:19.199Z,52.21
2023-02-16T06:02:47.324Z,51.51
2023-02-16T06:05:18.126Z,50.30
2023-02-16T06:07:46.853Z,50.11
2023-02-16T06:10:16.400Z,50.57
2023-02-16T06:12:45.002Z,51.02
2023-02-16T06:15:13.374Z,50.48
2023-02-16T06:17:41.497Z,49.90
2023-02-16T06:20:10.576Z,49.50
2023-02-16T06:22:40.564Z,48.64
2023-02-16T06:25:08.956Z,47.96
2023-02-16T06:27:37.044Z,47.89
2023-02-16T06:30:06.407Z,47.80
2023-02-16T06:32:34.590Z,47.47
2023-02-16T06:35:02.698Z,48.17
2023-02-16T06:37:30.854Z,47.41
2023-02-16T06:40:00.328Z,47.04
2023-02-16T06:42:28.378Z,47.58
2023-02-16T06:44:56.462Z,48.08
2023-02-16T06:47:24.603Z,48.49
2023-02-16T06:49:52.706Z,48.82
2023-02-16T06:52:21.061Z,49.47
2023-02-16T06:54:49.178Z,51.52
2023-02-16T06:57:18.771Z,52.61
2023-02-16T06:59:46.846Z,54.45
2023-02-16T07:02:15.039Z,58.83
2023-02-16T07:04:43.110Z,60.06
2023-02-16T07:07:11.236Z,57.60
2023-02-16T07:09:39.362Z,58.31
2023-02-16T07:12:08.454Z,56.82
2023-02-16T07:14:39.865Z,54.02
2023-02-16T07:17:08.766Z,52.84
2023-02-16T07:19:36.928Z,52.13
2023-02-16T07:22:05.545Z,51.18
2023-02-16T07:24:33.648Z,50.65
2023-02-16T07:27:01.740Z,50.17
2023-02-16T07:29:30.099Z,49.84
2023-02-16T07:31:59.857Z,50.23
2023-02-16T07:34:28.137Z,49.63
2023-02-16T07:36:56.259Z,49.00
2023-02-16T07:39:24.542Z,48.33
2023-02-16T07:41:52.726Z,47.69
2023-02-16T07:44:20.885Z,46.96
2023-02-16T07:46:49.153Z,46.47
2023-02-16T07:49:18.635Z,45.43
2023-02-16T07:51:46.750Z,45.86
2023-02-16T07:54:14.962Z,46.63
2023-02-16T07:56:43.125Z,46.81
2023-02-16T07:59:11.186Z,47.34
2023-02-16T08:01:40.162Z,47.17
2023-02-16T08:04:08.332Z,47.10
2023-02-16T08:06:38.236Z,47.02
2023-02-16T08:09:06.628Z,47.33
2023-02-16T08:11:34.758Z,47.07
2023-02-16T08:14:03.009Z,47.00
2023-02-16T08:16:31.415Z,48.35
2023-02-16T08:19:01.215Z,47.83
2023-02-16T08:21:31.366Z,48.08
2023-02-16T08:24:02.560Z,47.92
2023-02-16T08:26:36.872Z,47.08
2023-02-16T08:29:06.119Z,46.03
2023-02-16T08:31:36.765Z,45.66
2023-02-16T08:34:05.906Z,45.79
2023-02-16T08:36:35.625Z,45.34
2023-02-16T08:39:06.885Z,46.10
2023-02-16T08:41:36.909Z,45.01
2023-02-16T08:44:06.003Z,45.69
2023-02-16T08:46:35.627Z,44.91
2023-02-16T08:49:04.162Z,45.61
2023-02-16T08:51:34.662Z,45.45
2023-02-16T08:54:06.023Z,45.66
2023-02-16T08:56:34.527Z,45.65
2023-02-16T08:59:03.371Z,46.20
2023-02-16T09:01:32.463Z,46.41
2023-02-16T09:04:00.619Z,46.61
2023-02-16T09:06:28.957Z,46.59
2023-02-16T09:08:58.317Z,46.75
2023-02-16T09:11:27.842Z,47.17
2023-02-16T09:13:55.902Z,47.08
2023-02-16T09:16:24.941Z,47.41
2023-02-16T09:18:53.554Z,47.42
2023-02-16T09:21:25.636Z,48.10
2023-02-16T09:23:57.743Z,49.13
2023-02-16T09:26:29.370Z,49.95
2023-02-16T09:28:59.088Z,50.25
2023-02-16T09:31:31.330Z,50.33
2023-02-16T09:34:02.858Z,50.19
2023-02-16T09:36:32.009Z,50.60
2023-02-16T09:39:00.063Z,50.06
2023-02-16T09:41:38.149Z,50.01
2023-02-16T09:44:18.920Z,49.65
2023-02-16T09:46:48.247Z,49.91
2023-02-16T09:49:27.689Z,48.98
2023-02-16T09:52:04.029Z,48.56
2023-02-16T09:54:47.034Z,48.05
2023-02-16T09:57:23.874Z,47.96
2023-02-16T10:00:04.512Z,47.11
2023-02-16T10:02:44.074Z,46.98
2023-02-16T10:05:22.365Z,46.01
2023-02-16T10:08:07.779Z,45.78
2023-02-16T10:10:44.759Z,44.26
2023-02-16T10:13:22.605Z,44.31
2023-02-16T10:15:53.987Z,43.67
2023-02-16T10:18:29.435Z,43.11
2023-02-16T10:21:02.044Z,43.96
2023-02-16T10:23:45.166Z,43.68
2023-02-16T10:26:19.621Z,43.58
2023-02-16T10:28:50.958Z,44.13
2023-02-16T10:31:28.187Z,44.03
2023-02-16T10:34:09.597Z,43.08
2023-02-16T10:36:53.314Z,41.73
2023-02-16T10:39:29.135Z,42.48
2023-02-16T10:42:03.682Z,41.83
2023-02-16T10:44:40.261Z,53.35
2023-02-16T10:47:24.237Z,60.47
2023-02-16T10:49:53.149Z,63.24
2023-02-16T10:52:22.185Z,59.82
2023-02-16T10:54:50.990Z,59.99
2023-02-16T10:57:28.015Z,60.75
2023-02-16T11:00:00.298Z,59.44
2023-02-16T11:02:31.206Z,59.52
2023-02-16T11:05:01.857Z,62.41
2023-02-16T11:07:31.797Z,61.11
2023-02-16T11:10:02.186Z,58.06
2023-02-16T11:12:32.667Z,56.82
2023-02-16T11:15:06.346Z,56.55
2023-02-16T11:17:50.312Z,60.74
2023-02-16T11:20:28.746Z,63.52
2023-02-16T11:23:15.023Z,63.81
2023-02-16T11:25:43.204Z,63.50
2023-02-16T11:28:12.439Z,59.76
2023-02-16T11:30:43.497Z,57.64
2023-02-16T11:33:23.571Z,61.78
2023-02-16T11:35:52.228Z,61.80
2023-02-16T11:38:39.037Z,61.18
2023-02-16T11:41:08.207Z,60.95
2023-02-16T11:43:38.758Z,64.74
2023-02-16T11:46:16.765Z,66.09
2023-02-16T11:48:46.273Z,64.94
2023-02-16T11:51:16.371Z,62.46
2023-02-16T11:53:46.117Z,63.72
2023-02-16T11:56:27.458Z,63.63
2023-02-16T11:59:16.980Z,69.21
2023-02-16T12:02:19.781Z,70.67
2023-02-16T12:05:05.219Z,69.24
2023-02-16T12:07:44.670Z,62.42
2023-02-16T12:10:23.771Z,68.49
2023-02-16T12:12:58.907Z,73.43
2023-02-16T12:15:33.005Z,75.43
2023-02-16T12:18:17.906Z,75.35
2023-02-16T12:20:53.235Z,75.48
2023-02-16T12:23:38.290Z,76.60
2023-02-16T12:26:27.773Z,78.30
2023-02-16T12:29:05.340Z,79.15
2023-02-16T12:31:59.026Z,78.15
2023-02-16T12:34:33.795Z,79.12
2023-02-16T12:37:07.116Z,79.70
2023-02-16T12:39:47.747Z,79.91
2023-02-16T12:42:43.630Z,81.76
2023-02-16T12:45:17.681Z,83.95
2023-02-16T12:47:51.302Z,84.48
2023-02-16T12:50:24.129Z,85.44
2023-02-16T12:52:57.025Z,86.29
2023-02-16T12:55:29.451Z,87.63
2023-02-16T12:58:11.551Z,88.39
2023-02-16T13:00:46.127Z,88.54
2023-02-16T13:03:29.154Z,88.53
2023-02-16T13:06:09.368Z,88.47
2023-02-16T13:08:45.016Z,87.53
2023-02-16T13:11:20.336Z,87.86
2023-02-16T13:13:50.892Z,88.10
2023-02-16T13:16:30.631Z,88.18
2023-02-16T13:18:59.398Z,86.61
2023-02-16T13:22:00.596Z,86.85
2023-02-16T13:24:42.736Z,84.89
2023-02-16T13:27:23.782Z,81.92
2023-02-16T13:30:26.095Z,78.94
2023-02-16T13:33:08.240Z,73.75
2023-02-16T13:36:12.052Z,72.36
2023-02-16T13:39:13.558Z,75.06
2023-02-16T13:42:14.230Z,76.88
2023-02-16T13:44:45.804Z,78.22
2023-02-16T13:47:18.051Z,80.20
2023-02-16T13:49:48.322Z,76.58
2023-02-16T13:52:31.681Z,78.40
2023-02-16T13:55:01.496Z,75.87
2023-02-16T13:58:07.118Z,73.47
2023-02-16T14:00:38.285Z,71.76
2023-02-16T14:03:12.845Z,72.36
2023-02-16T14:05:43.017Z,73.19
2023-02-16T14:08:20.741Z,73.71
2023-02-16T14:11:09.700Z,72.65
2023-02-16T14:13:52.394Z,73.96
2023-02-16T14:16:36.354Z,72.75
2023-02-16T14:19:18.196Z,71.71
2023-02-16T14:21:48.105Z,71.35
2023-02-16T14:24:31.153Z,70.94
2023-02-16T14:27:01.159Z,68.27
2023-02-16T14:29:34.037Z,68.37
2023-02-16T14:32:08.017Z,69.78
2023-02-16T14:34:42.622Z,70.93
2023-02-16T14:37:30.305Z,70.96
2023-02-16T14:40:15.455Z,72.49
2023-02-16T14:42:52.771Z,73.46
2023-02-16T14:45:56.143Z,73.91
2023-02-16T14:48:42.150Z,74.28
2023-02-16T14:51:39.015Z,75.62
2023-02-16T14:54:37.443Z,76.47
2023-02-16T14:57:13.546Z,77.12
2023-02-16T14:59:49.814Z,78.00
2023-02-16T15:02:34.076Z,79.19
2023-02-16T15:05:18.862Z,81.34
2023-02-16T15:07:50.551Z,81.89
2023-02-16T15:10:26.890Z,82.71
2023-02-16T15:12:56.271Z,83.69
2023-02-16T15:15:32.698Z,84.32
2023-02-16T15:18:02.390Z,84.22
2023-02-16T15:20:34.461Z,84.16
2023-02-16T15:23:06.261Z,84.37
2023-02-16T15:25:38.542Z,84.59
2023-02-16T15:28:22.739Z,85.00
2023-02-16T15:30:53.867Z,85.98
2023-02-16T15:33:34.376Z,86.04
2023-02-16T15:36:05.930Z,86.53
2023-02-16T15:38:36.516Z,87.27
2023-02-16T15:41:07.678Z,88.47
2023-02-16T15:43:40.027Z,90.29
2023-02-16T15:46:16.020Z,92.22
2023-02-16T15:48:46.067Z,93.50
2023-02-16T15:51:18.673Z,93.84
2023-02-16T15:53:50.436Z,94.00
2023-02-16T15:56:30.670Z,95.21
2023-02-16T15:59:01.708Z,96.62
2023-02-16T16:01:36.696Z,97.39
2023-02-16T16:04:16.963Z,97.48
2023-02-16T16:06:46.831Z,99.71
2023-02-16T16:09:23.999Z,100.00
2023-02-16T16:11:53.162Z,100.00
2023-02-16T16:14:22.797Z,100.00
2023-02-16T16:16:51.589Z,100.00
2023-02-16T16:19:24.752Z,100.00
2023-02-16T16:21:55.679Z,100.00
2023-02-16T16:24:39.065Z,100.00
2023-02-16T16:27:10.110Z,100.00
2023-02-16T16:29:41.321Z,100.00
2023-02-16T16:32:21.387Z,100.00
2023-02-16T16:34:51.148Z,100.00
2023-02-16T16:37:26.528Z,100.00
2023-02-16T16:40:04.303Z,100.00
2023-02-16T16:42:34.057Z,100.00
2023-02-16T16:45:08.435Z,100.00
2023-02-16T16:47:40.271Z,100.00
2023-02-16T16:50:31.796Z,100.00
2023-02-16T16:53:00.015Z,100.00
2023-02-16T16:55:35.571Z,100.00
2023-02-16T16:58:08.069Z,100.00
2023-02-16T17:00:38.866Z,100.00
2023-02-16T17:03:08.698Z,100.00
2023-02-16T17:05:40.066Z,100.00
2023-02-16T17:08:08.814Z,100.00
2023-02-16T17:10:38.722Z,100.00
2023-02-16T17:13:08.075Z,100.00
2023-02-16T17:15:42.669Z,100.00
2023-02-16T17:18:15.503Z,100.00
2023-02-16T17:20:45.639Z,100.00
2023-02-16T17:23:15.304Z,100.00
2023-02-16T17:25:43.568Z,100.00
2023-02-16T17:28:13.734Z,100.00
2023-02-16T17:30:42.939Z,100.00
2023-02-16T17:33:11.920Z,100.00
2023-02-16T17:35:42.494Z,100.00
2023-02-16T17:38:15.094Z,100.00
2023-02-16T17:40:44.557Z,100.00
2023-02-16T17:43:15.098Z,100.00
2023-02-16T17:45:43.920Z,100.00
2023-02-16T17:48:17.395Z,100.00
2023-02-16T17:50:45.626Z,100.00
2023-02-16T17:53:16.945Z,100.00
2023-02-16T17:55:47.873Z,100.00
2023-02-16T17:58:17.431Z,100.00
2023-02-16T18:00:46.660Z,100.00
2023-02-16T18:03:15.248Z,100.00
2023-02-16T18:05:43.561Z,100.00
2023-02-16T18:08:13.269Z,100.00
2023-02-16T18:10:45.780Z,100.00
2023-02-16T18:13:15.066Z,100.00
2023-02-16T18:15:46.269Z,100.00
2023-02-16T18:18:15.924Z,100.00
2023-02-16T18:20:44.217Z,100.00
2023-02-16T18:23:12.350Z,100.00
2023-02-16T18:25:44.175Z,100.00
2023-02-16T18:28:14.844Z,100.00
2023-02-16T18:30:43.311Z,100.00
2023-02-16T18:33:11.473Z,100.00
2023-02-16T18:35:39.762Z,100.00
2023-02-16T18:38:09.133Z,100.00
2023-02-16T18:40:37.259Z,98.96
2023-02-16T18:43:06.737Z,95.95
2023-02-16T18:45:34.858Z,92.20
2023-02-16T18:48:03.231Z,88.77
2023-02-16T18:50:31.481Z,89.17
2023-02-16T18:52:59.672Z,89.01
2023-02-16T18:55:32.915Z,86.48
2023-02-16T18:58:01.420Z,85.17
2023-02-16T19:00:31.149Z,82.15
2023-02-16T19:02:59.381Z,80.97
2023-02-16T19:05:27.627Z,81.58
2023-02-16T19:07:55.768Z,80.66
2023-02-16T19:10:25.185Z,80.21
2023-02-16T19:12:53.469Z,79.32
2023-02-16T19:15:21.952Z,78.91
2023-02-16T19:17:51.474Z,77.63
2023-02-16T19:20:23.146Z,76.50
2023-02-16T19:22:51.504Z,76.25
2023-02-16T19:25:20.334Z,76.35
2023-02-16T19:27:48.600Z,76.37
2023-02-16T19:30:17.102Z,77.43
2023-02-16T19:32:45.494Z,76.49
2023-02-16T19:35:16.108Z,75.29
2023-02-16T19:37:44.183Z,75.08
2023-02-16T19:40:13.782Z,74.87
2023-02-16T19:42:41.916Z,75.29
2023-02-16T19:45:11.403Z,75.21
2023-02-16T19:47:39.581Z,74.92
2023-02-16T19:50:08.576Z,75.08
2023-02-16T19:52:38.288Z,74.73
2023-02-16T19:55:07.112Z,74.63
2023-02-16T19:57:35.255Z,75.38
2023-02-16T20:00:05.215Z,74.72
2023-02-16T20:02:33.361Z,74.86
2023-02-16T20:05:01.613Z,75.00
2023-02-16T20:07:29.730Z,75.44
2023-02-16T20:09:59.353Z,75.70
2023-02-16T20:12:28.815Z,76.35
2023-02-16T20:14:58.308Z,77.19
2023-02-16T20:17:26.473Z,77.31
2023-02-16T20:19:54.810Z,77.71
2023-02-16T20:22:22.966Z,77.75
2023-02-16T20:24:51.068Z,78.50
2023-02-16T20:27:20.594Z,78.59
2023-02-16T20:29:48.738Z,78.82
2023-02-16T20:32:16.992Z,79.68
2023-02-16T20:34:45.165Z,80.15
2023-02-16T20:37:13.334Z,81.20
2023-02-16T20:39:41.561Z,81.75
2023-02-16T20:42:09.748Z,81.08
2023-02-16T20:44:39.337Z,82.34
2023-02-16T20:47:10.210Z,83.00
2023-02-16T20:49:38.445Z,82.99
2023-02-16T20:52:07.000Z,84.10
2023-02-16T20:54:35.075Z,85.00
2023-02-16T20:57:04.685Z,85.42
2023-02-16T20:59:33.080Z,85.69
2023-02-16T21:02:04.810Z,85.21
2023-02-16T21:04:33.086Z,85.34
2023-02-16T21:07:01.293Z,83.72
2023-02-16T21:09:29.409Z,85.80
2023-02-16T21:11:57.494Z,85.90
2023-02-16T21:14:25.556Z,88.09
2023-02-16T21:16:53.649Z,87.52
2023-02-16T21:19:29.319Z,86.86
2023-02-16T21:21:57.429Z,86.08
2023-02-16T21:24:25.676Z,85.52
2023-02-16T21:26:54.052Z,85.75
2023-02-16T21:29:22.141Z,86.17
2023-02-16T21:31:50.432Z,85.91
2023-02-16T21:34:18.791Z,93.43
2023-02-16T21:36:48.282Z,92.15
2023-02-16T21:39:16.471Z,89.67
2023-02-16T21:41:43.877Z,86.35
2023-02-16T21:44:13.296Z,84.92
2023-02-16T21:46:43.426Z,83.36
2023-02-16T21:49:13.305Z,82.27
2023-02-16T21:51:42.918Z,81.44
2023-02-16T21:54:15.261Z,81.11
2023-02-16T21:56:44.408Z,81.80
2023-02-16T21:59:14.843Z,82.42
2023-02-16T22:01:45.520Z,82.19
2023-02-16T22:04:15.748Z,81.87
2023-02-16T22:06:47.327Z,82.05
2023-02-16T22:09:20.290Z,81.94
2023-02-16T22:11:49.527Z,82.23
2023-02-16T22:14:17.932Z,81.80
2023-02-16T22:16:47.774Z,81.96
2023-02-16T22:19:18.388Z,81.68
2023-02-16T22:21:48.563Z,80.81
2023-02-16T22:24:21.527Z,80.65
2023-02-16T22:26:51.329Z,81.13
2023-02-16T22:29:21.971Z,81.06
2023-02-16T22:31:51.058Z,81.15
2023-02-16T22:34:22.597Z,81.38
2023-02-16T22:36:50.963Z,81.73
2023-02-16T22:39:20.967Z,82.25
2023-02-16T22:41:50.448Z,82.06
2023-02-16T22:44:18.755Z,81.78
2023-02-16T22:46:46.947Z,81.92
2023-02-16T22:49:19.108Z,82.29
2023-02-16T22:51:48.405Z,82.05
2023-02-16T22:54:16.539Z,81.83
2023-02-16T22:56:46.037Z,81.48
2023-02-16T22:59:14.265Z,81.33
2023-02-16T23:01:42.771Z,81.59
2023-02-16T23:04:15.262Z,81.73
2023-02-16T23:06:47.588Z,82.22
2023-02-16T23:09:19.006Z,82.56
2023-02-16T23:11:49.229Z,83.19
2023-02-16T23:14:18.275Z,83.43
2023-02-16T23:16:48.262Z,83.32
2023-02-16T23:19:19.030Z,83.11
2023-02-16T23:21:48.012Z,82.95
2023-02-16T23:24:18.747Z,82.87
2023-02-16T23:26:49.150Z,82.63
2023-02-16T23:29:17.288Z,81.96
2023-02-16T23:31:47.635Z,82.04
2023-02-16T23:34:16.766Z,82.40
2023-02-16T23:36:45.543Z,81.38
2023-02-16T23:39:16.774Z,81.16
2023-02-16T23:41:45.489Z,80.17
2023-02-16T23:44:15.667Z,79.01
2023-02-16T23:46:43.783Z,78.48
2023-02-16T23:49:11.866Z,77.56
2023-02-16T23:51:42.351Z,77.42
2023-02-16T23:54:11.605Z,76.60
2023-02-16T23:56:42.013Z,75.75
2023-02-16T23:59:10.207Z,74.81
